Time;durP1;ratioP1;P1;durP2;ratioP2;P2;SDS_P1;SDS_P2;PMS_P1;PMS_P2;Temp;Humidity;BMP_temperature;BMP_pressure;BME280_temperature;BME280_humidity;BME280_pressure;Samples;Min_cycle;Max_cycle;Signal;HPM_P1;HPM_P2
2023/09/13 00:00:58;;;;;;;14.65;6.40;;;;;;;23.77;51.41;100138.09;5424000;32;34411;-74
2023/09/13 00:04:01;;;;;;;16.23;6.97;;;;;;;23.68;51.58;100138.97;5447259;32;33973;-74
2023/09/13 00:07:05;;;;;;;34.53;9.77;;;;;;;23.35;52.52;100135.03;5444954;32;34661;-75
2023/09/13 00:10:09;;;;;;;17.45;7.07;;;;;;;23.05;53.21;100134.28;5450655;32;34365;-75
2023/09/13 00:13:13;;;;;;;15.05;6.62;;;;;;;23.33;52.72;100127.12;5464979;32;34275;-74
2023/09/13 00:16:20;;;;;;;20.58;6.85;;;;;;;23.10;53.25;100132.00;5448208;32;34402;-74
2023/09/13 00:19:27;;;;;;;17.70;6.68;;;;;;;22.43;55.06;100122.28;5447963;32;34079;-74
2023/09/13 00:22:33;;;;;;;17.50;6.97;;;;;;;22.55;55.07;100131.00;5461400;32;34541;-74
2023/09/13 00:25:38;;;;;;;14.73;6.00;;;;;;;23.07;53.91;100131.47;5428465;32;34417;-74
2023/09/13 00:28:43;;;;;;;;;;;;;;;23.30;53.01;100130.09;5447032;32;35572;-74
2023/09/13 00:32:29;;;;;;;19.92;7.05;;;;;;;22.96;53.98;100121.78;5446938;32;35038;-74
2023/09/13 00:35:47;;;;;;;21.10;7.35;;;;;;;22.42;55.48;100126.78;5460871;32;35094;-74
2023/09/13 00:38:50;;;;;;;;;;;;;;;22.95;54.16;100122.78;5454106;32;34750;-74
2023/09/13 00:41:57;;;;;;;14.43;6.62;;;;;;;23.09;53.76;100124.97;5459990;32;34712;-74
2023/09/13 00:45:02;;;;;;;21.15;7.07;;;;;;;22.53;55.41;100127.59;5465069;32;34960;-74
2023/09/13 00:48:06;;;;;;;17.98;7.10;;;;;;;22.33;55.64;100124.09;5455199;32;35107;-74
2023/09/13 00:51:09;;;;;;;20.50;7.57;;;;;;;21.84;57.05;100124.06;5454406;32;34173;-74
2023/09/13 00:54:13;;;;;;;16.83;8.18;;;;;;;21.83;57.81;100124.16;5434934;32;34490;-74
2023/09/13 00:57:15;;;;;;;15.23;7.50;;;;;;;22.37;56.29;100114.81;5450305;32;34672;-74
2023/09/13 01:00:18;;;;;;;19.25;7.57;;;;;;;22.11;56.98;100112.69;5451837;32;34807;-74
2023/09/13 01:03:23;;;;;;;15.52;6.78;;;;;;;22.52;56.35;100126.75;5463504;32;33970;-74
2023/09/13 01:06:27;;;;;;;21.58;7.80;;;;;;;22.91;55.04;100122.19;5436250;32;34890;-73
2023/09/13 01:09:29;;;;;;;18.05;7.05;;;;;;;21.69;58.32;100124.56;5461614;32;34825;-73
2023/09/13 01:12:31;;;;;;;18.67;7.12;;;;;;;21.63;59.15;100120.62;5466887;32;34209;-73
2023/09/13 01:15:35;;;;;;;;;;;;;;;22.24;57.41;100125.81;5449900;32;34488;-73
2023/09/13 01:18:53;;;;;;;15.90;7.07;;;;;;;22.88;55.31;100127.03;5449794;32;34631;-73
2023/09/13 01:22:14;;;;;;;17.58;7.80;;;;;;;21.93;57.68;100133.06;5468279;32;34536;-74
2023/09/13 01:25:41;;;;;;;15.63;6.68;;;;;;;22.42;56.89;100142.00;5460847;32;33424;-74
2023/09/13 01:28:49;;;;;;;20.60;7.20;;;;;;;21.80;58.19;100140.50;5464058;32;34223;-74
2023/09/13 01:31:53;;;;;;;17.65;6.80;;;;;;;22.13;57.78;100137.47;5450463;32;33942;-74
2023/09/13 01:34:55;;;;;;;18.25;7.18;;;;;;;22.48;56.50;100138.75;5463327;32;34593;-74
2023/09/13 01:37:58;;;;;;;14.90;6.70;;;;;;;22.15;57.46;100137.34;5466830;32;34194;-75
2023/09/13 01:41:22;;;;;;;22.92;7.85;;;;;;;21.96;58.13;100143.50;5463173;32;35121;-74
2023/09/13 01:44:26;;;;;;;22.48;7.60;;;;;;;21.53;59.84;100143.81;5452632;32;34296;-74
2023/09/13 01:47:29;;;;;;;30.88;9.45;;;;;;;21.47;60.06;100137.19;5460648;32;34224;-74
2023/09/13 01:50:31;;;;;;;20.88;7.78;;;;;;;22.32;57.90;100142.00;5448762;32;35048;-73
2023/09/13 01:53:42;;;;;;;;;;;;;;;22.36;57.78;100145.25;5466881;32;34681;-74
2023/09/13 01:56:44;;;;;;;18.67;7.18;;;;;;;22.47;57.41;100147.75;5448500;32;35239;-74
2023/09/13 01:59:50;;;;;;;17.08;7.18;;;;;;;21.55;60.28;100153.41;5466654;32;35742;-74
2023/09/13 02:03:16;;;;;;;17.10;7.35;;;;;;;21.35;62.05;100147.12;5462795;32;34465;-74
2023/09/13 02:06:48;;;;;;;16.50;7.90;;;;;;;21.24;63.04;100149.03;5417950;32;34965;-73
2023/09/13 02:10:16;;;;;;;14.75;7.70;;;;;;;21.37;62.65;100150.50;5419389;32;33544;-75
2023/09/13 02:13:46;;;;;;;17.65;7.87;;;;;;;21.26;62.76;100153.25;5365486;32;34794;-73
2023/09/13 02:17:39;;;;;;;16.92;8.52;;;;;;;21.07;63.73;100142.50;5384377;31;4457459;-74
2023/09/13 02:20:51;;;;;;;18.40;8.45;;;;;;;21.57;61.86;100140.72;5475151;32;34606;-74
2023/09/13 02:24:25;;;;;;;19.90;8.50;;;;;;;20.79;64.93;100149.34;5462438;32;34642;-74
2023/09/13 02:27:47;;;;;;;19.73;8.60;;;;;;;20.83;65.38;100151.63;5430331;32;34069;-74
2023/09/13 02:31:10;;;;;;;17.87;8.50;;;;;;;21.43;62.28;100142.94;5429481;32;34730;-74
2023/09/13 02:34:57;;;;;;;18.67;8.02;;;;;;;21.06;63.48;100138.97;5414368;32;34281;-74
2023/09/13 02:38:33;;;;;;;20.67;8.30;;;;;;;21.76;61.00;100139.09;5397140;32;34368;-73
2023/09/13 02:42:09;;;;;;;15.07;8.32;;;;;;;21.02;63.15;100153.56;5406268;32;34529;-74
2023/09/13 02:45:35;;;;;;;21.48;8.07;;;;;;;21.09;62.54;100146.72;5388467;32;34469;-74
2023/09/13 02:49:08;;;;;;;16.55;7.70;;;;;;;21.51;60.89;100145.78;5388715;32;34932;-73
2023/09/13 02:52:31;;;;;;;18.37;7.40;;;;;;;22.11;58.25;100142.13;5392052;32;34565;-74
2023/09/13 02:55:46;;;;;;;21.10;7.55;;;;;;;21.95;58.25;100144.47;5391438;32;34219;-73
2023/09/13 02:59:13;;;;;;;18.02;7.35;;;;;;;22.32;57.24;100141.16;5395738;32;33983;-73
2023/09/13 03:02:48;;;;;;;17.70;7.95;;;;;;;21.86;58.25;100135.47;5397855;32;34461;-74
2023/09/13 03:06:22;;;;;;;18.67;8.10;;;;;;;21.44;59.95;100139.28;5367618;32;34851;-73
2023/09/13 03:09:36;;;;;;;20.17;7.23;;;;;;;21.75;59.00;100148.09;5378038;32;33967;-73
2023/09/13 03:13:16;;;;;;;16.08;7.53;;;;;;;21.56;59.14;100140.88;5328957;33;34749;-73
2023/09/13 03:16:24;;;;;;;15.98;7.43;;;;;;;22.11;56.73;100142.13;5329415;33;34660;-74
2023/09/13 03:20:13;;;;;;;16.10;9.07;;;;;;;21.48;58.21;100138.87;5333853;33;34262;-74
2023/09/13 03:23:27;;;;;;;19.92;7.70;;;;;;;21.60;58.01;100139.63;5304320;33;35014;-74
2023/09/13 03:26:46;;;;;;;21.23;7.87;;;;;;;20.96;59.96;100145.22;5317526;33;32987;-73
2023/09/13 03:30:14;;;;;;;16.20;7.22;;;;;;;21.25;59.20;100143.56;5330406;32;34444;-73
2023/09/13 03:33:37;;;;;;;18.25;7.57;;;;;;;20.77;60.47;100151.31;5355416;32;35886;-73
2023/09/13 03:36:54;;;;;;;17.83;7.37;;;;;;;20.61;61.23;100151.78;5368232;32;33070;-73
2023/09/13 03:40:14;;;;;;;21.77;8.30;;;;;;;20.16;62.12;100151.09;5424032;32;33995;-73
2023/09/13 03:43:35;;;;;;;17.23;7.30;;;;;;;20.36;61.53;100144.09;5426959;32;35239;-73
2023/09/13 03:46:56;;;;;;;23.12;7.80;;;;;;;20.26;61.21;100138.66;5415123;32;32899;-75
2023/09/13 03:50:17;;;;;;;18.95;7.40;;;;;;;20.35;60.79;100145.06;5393633;32;34323;-74
2023/09/13 03:53:36;;;;;;;20.77;8.13;;;;;;;20.48;61.22;100148.41;5408489;32;34609;-74
2023/09/13 03:57:02;;;;;;;19.05;8.13;;;;;;;20.88;59.73;100143.22;5414389;32;34035;-75
2023/09/13 04:00:18;;;;;;;21.85;7.35;;;;;;;20.69;60.29;100146.63;5415398;32;34330;-74
2023/09/13 04:03:34;;;;;;;26.08;8.63;;;;;;;20.65;60.77;100147.00;5430668;32;35118;-75
2023/09/13 04:07:00;;;;;;;16.77;8.18;;;;;;;21.15;59.14;100139.16;5470226;32;33887;-73
2023/09/13 04:10:31;;;;;;;25.70;8.88;;;;;;;20.87;60.36;100141.53;5466151;32;34497;-74
2023/09/13 04:13:50;;;;;;;21.10;8.15;;;;;;;21.02;59.59;100150.06;5478627;32;34114;-73
2023/09/13 04:17:30;;;;;;;19.10;7.62;;;;;;;21.66;57.61;100143.59;5448165;32;35350;-74
2023/09/13 04:20:48;;;;;;;17.33;7.80;;;;;;;21.75;56.85;100145.44;5467923;32;33750;-74
2023/09/13 04:24:11;;;;;;;20.15;8.23;;;;;;;21.26;58.04;100149.75;5457196;32;34169;-74
2023/09/13 04:27:46;;;;;;;17.23;8.10;;;;;;;20.92;59.61;100149.97;5477677;32;34723;-75
2023/09/13 04:31:11;;;;;;;25.17;8.10;;;;;;;20.93;59.98;100151.69;5445237;32;35160;-74
2023/09/13 04:34:43;;;;;;;21.90;8.55;;;;;;;21.13;59.47;100159.81;5480973;32;34568;-75
2023/09/13 04:38:04;;;;;;;16.87;8.07;;;;;;;20.66;60.44;100159.37;5468714;32;35712;-73
2023/09/13 04:41:26;;;;;;;23.67;8.02;;;;;;;21.35;58.66;100163.16;5486809;31;34390;-74
2023/09/13 04:44:54;;;;;;;18.92;8.20;;;;;;;21.76;57.01;100164.00;5493192;31;33998;-73
2023/09/13 04:48:27;;;;;;;22.55;8.55;;;;;;;20.52;60.96;100173.88;5503091;31;33891;-74
2023/09/13 04:52:09;;;;;;;26.73;9.95;;;;;;;20.39;62.17;100174.03;5429028;32;34824;-73
2023/09/13 04:55:26;;;;;;;18.67;8.43;;;;;;;20.29;62.74;100178.47;5416148;32;36301;-73
2023/09/13 04:58:51;;;;;;;17.27;7.37;;;;;;;20.93;61.12;100183.75;5411709;32;35872;-74
2023/09/13 05:01:56;;;;;;;21.87;8.80;;;;;;;21.52;58.45;100175.06;5414203;32;32994;-75
2023/09/13 05:04:58;;;;;;;18.15;7.80;;;;;;;21.79;57.62;100176.28;5412859;32;34434;-73
2023/09/13 05:08:00;;;;;;;17.98;8.23;;;;;;;21.93;57.35;100181.22;5407933;32;34666;-74
2023/09/13 05:11:03;;;;;;;14.27;7.30;;;;;;;21.67;58.06;100175.53;5426916;32;35332;-73
2023/09/13 05:14:14;;;;;;;20.90;8.70;;;;;;;21.82;57.77;100170.62;5423812;32;34735;-73
2023/09/13 05:17:17;;;;;;;18.52;7.25;;;;;;;22.37;55.22;100181.75;5411831;32;33816;-74
2023/09/13 05:20:19;;;;;;;20.88;7.50;;;;;;;21.85;56.23;100186.44;5434751;32;34607;-74
2023/09/13 05:23:21;;;;;;;23.92;8.15;;;;;;;22.83;53.44;100189.03;5410241;32;34509;-74
2023/09/13 05:26:23;;;;;;;16.10;6.55;;;;;;;24.04;50.54;100190.88;5433837;32;35218;-74
2023/09/13 05:29:26;;;;;;;16.80;6.82;;;;;;;23.90;50.53;100184.19;5409271;32;35055;-74
2023/09/13 05:32:28;;;;;;;24.52;7.35;;;;;;;24.21;48.23;100195.41;5406154;32;35930;-72
2023/09/13 05:35:31;;;;;;;19.75;7.53;;;;;;;24.39;48.07;100190.09;5413902;32;36528;-73
2023/09/13 05:38:34;;;;;;;18.27;6.75;;;;;;;25.14;45.66;100195.94;5430182;32;35108;-73
2023/09/13 05:41:37;;;;;;;22.40;7.35;;;;;;;24.34;46.92;100194.22;5414576;32;34743;-74
2023/09/13 05:44:39;;;;;;;24.87;8.05;;;;;;;25.64;43.89;100187.13;5434286;32;34022;-74
2023/09/13 05:47:41;;;;;;;;;;;;;;;24.53;46.12;100196.75;5444350;32;33926;-79
2023/09/13 05:50:43;;;;;;;19.73;7.10;;;;;;;25.12;44.88;100197.94;5481376;32;35331;-79
2023/09/13 05:53:45;;;;;;;;;;;;;;;25.98;43.00;100191.62;5489925;32;33727;-72
2023/09/13 05:56:48;;;;;;;19.92;7.28;;;;;;;26.36;42.24;100193.72;5501178;31;32497;-77
2023/09/13 05:59:50;;;;;;;16.77;6.82;;;;;;;26.94;40.60;100191.91;5500985;31;34932;-69
2023/09/13 06:02:52;;;;;;;21.23;6.50;;;;;;;25.93;42.39;100197.50;5507235;31;35285;-79
2023/09/13 06:05:54;;;;;;;17.67;6.93;;;;;;;26.89;40.61;100196.97;5505140;31;33910;-80
2023/09/13 06:08:58;;;;;;;26.42;7.50;;;;;;;27.11;39.70;100192.75;5504102;31;33873;-78
2023/09/13 06:12:01;;;;;;;17.45;7.22;;;;;;;26.86;39.75;100194.62;5500027;31;33923;-76
2023/09/13 06:15:04;;;;;;;26.75;7.32;;;;;;;27.24;40.16;100188.53;5508417;31;35225;-70
2023/09/13 06:18:07;;;;;;;21.45;7.60;;;;;;;26.43;41.24;100200.16;5496879;31;36132;-75
2023/09/13 06:21:12;;;;;;;21.67;7.50;;;;;;;27.52;38.99;100185.41;5485203;31;34437;-77
2023/09/13 06:24:16;;;;;;;22.77;7.95;;;;;;;27.83;38.65;100192.72;5489095;31;33938;-75
2023/09/13 06:27:19;;;;;;;21.80;7.82;;;;;;;27.66;39.33;100192.75;5500707;31;33883;-78
2023/09/13 06:30:22;;;;;;;20.65;8.88;;;;;;;28.33;37.78;100189.56;5504440;31;34423;-73
2023/09/13 06:33:26;;;;;;;21.58;7.35;;;;;;;28.31;38.21;100189.75;5502644;31;33559;-83
2023/09/13 06:36:43;;;;;;;24.05;7.75;;;;;;;29.36;36.36;100192.53;5496448;31;33992;-70
2023/09/13 06:39:46;;;;;;;25.95;7.82;;;;;;;30.25;34.05;100186.22;5504987;31;35467;-82
2023/09/13 06:42:51;;;;;;;18.58;8.18;;;;;;;29.51;35.04;100189.87;5498743;31;35443;-79
2023/09/13 06:46:02;;;;;;;18.87;7.47;;;;;;;28.30;37.17;100187.22;5504353;31;34224;-73
2023/09/13 06:49:08;;;;;;;20.12;7.43;;;;;;;29.08;35.93;100178.81;5502617;31;34316;-71
2023/09/13 06:52:12;;;;;;;25.15;9.25;;;;;;;28.59;36.75;100190.03;5498673;31;34676;-84
2023/09/13 06:55:20;;;;;;;24.30;7.32;;;;;;;29.68;34.71;100172.37;5516587;31;34159;-69
2023/09/13 06:58:26;;;;;;;24.08;6.10;;;;;;;29.91;34.37;100174.12;5486777;31;32709;-84
2023/09/13 07:01:31;;;;;;;20.62;6.78;;;;;;;30.18;33.46;100176.13;5506244;31;35200;-78
2023/09/13 07:04:53;;;;;;;27.62;7.18;;;;;;;30.55;32.33;100184.22;5500804;31;35102;-74
2023/09/13 07:08:00;;;;;;;20.90;6.80;;;;;;;31.09;31.57;100181.75;5491421;31;34846;-72
2023/09/13 07:11:02;;;;;;;25.12;7.22;;;;;;;30.46;33.23;100183.50;5510598;31;35302;-76
2023/09/13 07:14:05;;;;;;;23.58;7.62;;;;;;;31.21;32.37;100182.03;5496168;31;34017;-74
2023/09/13 07:17:10;;;;;;;18.62;7.32;;;;;;;31.37;31.95;100172.78;5510638;31;35062;-71
2023/09/13 07:20:12;;;;;;;19.70;7.93;;;;;;;31.40;31.95;100180.53;5503119;31;34172;-71
2023/09/13 07:23:15;;;;;;;25.95;8.25;;;;;;;30.76;32.41;100181.50;5502380;31;34841;-77
2023/09/13 07:26:20;;;;;;;23.30;11.30;;;;;;;29.52;35.01;100183.44;5508395;31;34843;-73
2023/09/13 07:29:22;;;;;;;24.37;9.13;;;;;;;31.16;32.35;100179.91;5511773;31;35897;-75
2023/09/13 07:32:25;;;;;;;23.30;7.78;;;;;;;33.25;28.96;100180.94;5505558;31;36070;-73
2023/09/13 07:35:29;;;;;;;23.77;7.70;;;;;;;33.06;29.45;100187.25;5502916;31;34132;-72
2023/09/13 07:38:32;;;;;;;27.15;8.32;;;;;;;30.96;32.41;100178.94;5509548;31;34408;-76
2023/09/13 07:41:35;;;;;;;23.83;7.90;;;;;;;31.17;32.52;100186.19;5502436;31;35443;-77
2023/09/13 07:44:37;;;;;;;21.33;8.30;;;;;;;31.35;31.89;100183.84;5515417;31;34692;-76
2023/09/13 07:47:42;;;;;;;18.37;7.90;;;;;;;32.25;30.50;100181.91;5501964;31;34116;-72
2023/09/13 07:50:45;;;;;;;23.58;8.63;;;;;;;33.04;29.01;100190.19;5507475;31;35303;-73
2023/09/13 07:53:47;;;;;;;21.15;8.20;;;;;;;31.69;31.27;100195.72;5495474;31;36388;-75
2023/09/13 07:56:50;;;;;;;19.87;8.20;;;;;;;30.51;33.02;100191.06;5478596;31;34572;-74
2023/09/13 07:59:55;;;;;;;22.45;8.25;;;;;;;33.34;28.51;100187.00;5506702;31;34157;-73
2023/09/13 08:02:59;;;;;;;20.62;8.25;;;;;;;32.17;30.23;100182.13;5420905;32;35449;-75
2023/09/13 08:06:04;;;;;;;29.23;8.55;;;;;;;33.07;29.36;100189.78;5447227;32;34010;-77
2023/09/13 08:09:07;;;;;;;22.40;8.82;;;;;;;33.05;29.42;100186.44;5432644;32;36293;-78
2023/09/13 08:12:12;;;;;;;32.80;9.05;;;;;;;32.56;30.15;100184.94;5451592;32;33877;-77
2023/09/13 08:15:16;;;;;;;23.12;7.43;;;;;;;33.86;28.47;100177.81;5443044;32;36126;-74
2023/09/13 08:18:18;;;;;;;22.73;7.12;;;;;;;34.52;26.30;100178.53;5451949;32;34955;-76
2023/09/13 08:21:23;;;;;;;16.35;7.20;;;;;;;34.00;26.98;100184.06;5457883;32;35665;-72
2023/09/13 08:24:28;;;;;;;18.58;7.87;;;;;;;34.79;26.04;100182.72;5454992;32;34814;-78
2023/09/13 08:27:31;;;;;;;17.05;7.85;;;;;;;35.65;24.98;100189.25;5451134;32;34012;-73
2023/09/13 08:30:33;;;;;;;27.05;9.05;;;;;;;36.05;24.90;100182.22;5424805;32;35417;-77
2023/09/13 08:33:36;;;;;;;21.35;8.52;;;;;;;34.83;26.13;100189.41;5448464;32;33803;-78
2023/09/13 08:36:40;;;;;;;25.88;8.38;;;;;;;34.77;26.14;100190.28;5457062;32;34131;-74
2023/09/13 08:39:43;;;;;;;17.85;7.15;;;;;;;34.35;26.90;100192.69;5453162;32;32378;-79
2023/09/13 08:42:46;;;;;;;21.33;9.48;;;;;;;34.99;25.73;100185.31;5451551;32;33966;-79
2023/09/13 08:45:49;;;;;;;18.37;7.93;;;;;;;34.99;26.01;100177.94;5439559;32;34695;-78
2023/09/13 08:48:53;;;;;;;19.92;7.10;;;;;;;35.29;25.57;100185.41;5463116;32;38307;-73
2023/09/13 08:51:59;;;;;;;17.73;7.10;;;;;;;36.29;24.04;100180.41;5438309;32;34322;-78
2023/09/13 08:55:04;;;;;;;28.73;6.70;;;;;;;37.38;23.15;100180.09;5448128;32;34045;-81
2023/09/13 08:58:06;;;;;;;20.90;7.12;;;;;;;38.62;21.10;100180.34;5449817;32;34329;-87
2023/09/13 09:01:09;;;;;;;18.48;7.25;;;;;;;36.85;23.22;100192.81;5448847;32;35103;-78
2023/09/13 09:04:14;;;;;;;18.55;6.78;;;;;;;35.41;25.17;100190.97;5456719;32;34259;-86
2023/09/13 09:07:18;;;;;;;18.02;6.20;;;;;;;35.32;24.95;100192.34;5441770;32;34220;-70
2023/09/13 09:10:21;;;;;;;14.57;6.05;;;;;;;37.90;21.81;100189.16;5433783;32;35958;-79
2023/09/13 09:13:25;;;;;;;16.52;6.72;;;;;;;40.10;19.20;100179.69;5452691;32;34357;-77
2023/09/13 09:16:30;;;;;;;20.62;7.53;;;;;;;38.10;21.38;100177.75;5452163;32;34187;-77
2023/09/13 09:19:32;;;;;;;13.32;5.40;;;;;;;36.36;23.67;100183.03;5461249;32;34209;-76
2023/09/13 09:22:36;;;;;;;12.48;5.62;;;;;;;38.80;20.71;100184.78;5450409;32;34256;-76
2023/09/13 09:25:43;;;;;;;14.05;6.30;;;;;;;38.98;20.00;100191.94;5451345;32;33975;-76
2023/09/13 09:28:47;;;;;;;11.93;5.82;;;;;;;38.35;20.95;100193.06;5453872;32;34039;-80
2023/09/13 09:31:54;;;;;;;17.50;6.12;;;;;;;38.88;20.56;100184.34;5454150;32;34236;-71
2023/09/13 09:35:00;;;;;;;13.98;6.70;;;;;;;38.24;21.12;100197.47;5456210;32;34037;-75
2023/09/13 09:38:05;;;;;;;15.52;6.60;;;;;;;36.46;22.87;100205.25;5451699;32;34112;-77
2023/09/13 09:41:08;;;;;;;19.10;6.30;;;;;;;37.00;22.58;100205.22;5456463;32;34800;-80
2023/09/13 09:44:10;;;;;;;19.92;6.55;;;;;;;36.92;22.74;100200.13;5455122;32;34071;-77
2023/09/13 09:47:15;;;;;;;12.63;6.40;;;;;;;36.80;22.81;100194.59;5447651;32;33929;-79
2023/09/13 09:50:18;;;;;;;16.50;6.68;;;;;;;35.93;24.07;100199.63;5466810;32;34013;-70
2023/09/13 09:53:25;;;;;;;15.05;6.65;;;;;;;35.67;24.48;100203.50;5448426;32;35400;-80
2023/09/13 09:56:27;;;;;;;13.13;5.82;;;;;;;37.73;21.80;100193.72;5448058;32;33729;-80
2023/09/13 09:59:30;;;;;;;14.82;6.30;;;;;;;37.62;21.94;100192.69;5450799;32;34791;-74
2023/09/13 10:02:33;;;;;;;15.25;7.45;;;;;;;37.53;22.31;100191.38;5439777;32;34092;-76
2023/09/13 10:06:01;;;;;;;19.10;7.12;;;;;;;34.45;26.05;100187.59;5455839;32;33690;-69
2023/09/13 10:09:04;;;;;;;17.42;6.72;;;;;;;36.17;24.07;100181.44;5450240;32;34062;-71
2023/09/13 10:12:10;;;;;;;14.73;6.30;;;;;;;38.01;22.33;100173.75;5447163;32;35512;-76
2023/09/13 10:15:16;;;;;;;19.17;7.00;;;;;;;39.13;20.39;100170.16;5447540;32;34852;-79
2023/09/13 10:18:19;;;;;;;13.88;7.57;;;;;;;38.28;21.87;100167.69;5444888;32;37075;-74
2023/09/13 10:21:30;;;;;;;19.30;6.30;;;;;;;38.59;21.46;100164.38;5441669;32;34149;-74
2023/09/13 10:24:48;;;;;;;14.02;6.03;;;;;;;41.06;18.26;100165.13;5447034;32;35199;-78
2023/09/13 10:27:52;;;;;;;16.50;6.70;;;;;;;40.65;18.60;100159.31;5441757;32;35524;-77
2023/09/13 10:30:56;;;;;;;14.05;6.30;;;;;;;37.89;21.91;100162.00;5446078;32;33705;-76
2023/09/13 10:34:03;;;;;;;15.32;5.65;;;;;;;36.37;23.49;100154.59;5452878;32;34153;-76
2023/09/13 10:37:11;;;;;;;13.77;6.28;;;;;;;36.47;23.72;100157.66;5441364;32;34054;-75
2023/09/13 10:40:23;;;;;;;24.08;6.87;;;;;;;36.04;23.93;100164.16;5450308;32;34150;-73
2023/09/13 10:43:27;;;;;;;19.42;6.93;;;;;;;33.55;26.98;100162.22;5453473;32;34391;-74
2023/09/13 10:46:30;;;;;;;13.85;7.15;;;;;;;32.60;28.46;100172.59;5450690;32;33977;-70
2023/09/13 10:49:38;;;;;;;16.17;6.97;;;;;;;33.01;28.24;100170.72;5449545;32;33174;-72
2023/09/13 10:52:45;;;;;;;15.43;6.28;;;;;;;34.33;25.94;100156.63;5454728;32;34895;-70
2023/09/13 10:55:49;;;;;;;16.75;7.32;;;;;;;34.09;26.42;100155.50;5452620;32;34541;-72
2023/09/13 10:58:53;;;;;;;12.80;5.82;;;;;;;32.64;28.89;100155.84;5452594;32;34306;-73
2023/09/13 11:01:56;;;;;;;13.25;6.80;;;;;;;33.95;26.63;100145.75;5451795;32;33893;-71
2023/09/13 11:04:59;;;;;;;16.00;6.97;;;;;;;34.13;26.41;100144.97;5462062;32;34121;-74
2023/09/13 11:08:01;;;;;;;18.20;6.95;;;;;;;33.92;26.77;100147.00;5442131;32;34110;-78
2023/09/13 11:11:17;;;;;;;17.75;7.15;;;;;;;33.41;27.84;100153.25;5449484;32;34345;-76
2023/09/13 11:14:29;;;;;;;17.05;7.43;;;;;;;35.30;25.01;100140.66;5449193;32;33852;-70
2023/09/13 11:17:40;;;;;;;12.75;6.95;;;;;;;34.30;26.43;100148.84;5448732;32;33395;-76
2023/09/13 11:20:45;;;;;;;11.02;7.00;;;;;;;34.85;25.60;100143.62;5453716;32;33124;-76
2023/09/13 11:23:52;;;;;;;13.73;7.75;;;;;;;33.86;27.30;100139.66;5441865;32;34603;-78
2023/09/13 11:27:08;;;;;;;15.18;7.18;;;;;;;33.90;27.15;100131.87;5449510;32;32690;-73
2023/09/13 11:30:11;;;;;;;11.43;6.05;;;;;;;35.71;24.45;100130.94;5453223;32;33858;-74
2023/09/13 11:33:14;;;;;;;13.60;6.15;;;;;;;37.13;22.31;100126.38;5453609;32;34184;-72
2023/09/13 11:36:27;;;;;;;10.07;5.72;;;;;;;36.51;22.91;100125.97;5438475;32;33945;-76
2023/09/13 11:39:30;;;;;;;13.35;6.90;;;;;;;35.52;23.84;100117.28;5436185;32;34852;-75
2023/09/13 11:42:33;;;;;;;9.25;6.47;;;;;;;34.92;25.04;100119.84;5426803;32;34050;-77
2023/09/13 11:45:39;;;;;;;9.85;6.28;;;;;;;36.10;23.43;100106.84;5444903;32;34197;-71
2023/09/13 11:48:51;;;;;;;13.30;6.45;;;;;;;35.53;23.82;100116.22;5456826;32;34114;-70
2023/09/13 11:52:01;;;;;;;10.85;6.60;;;;;;;34.74;24.81;100117.06;5450148;32;34064;-75
2023/09/13 11:55:27;;;;;;;15.52;6.62;;;;;;;33.97;26.26;100112.81;5455051;32;35974;-74
2023/09/13 11:58:39;;;;;;;19.10;7.12;;;;;;;35.28;24.46;100115.44;5452628;32;35173;-74
2023/09/13 12:01:58;;;;;;;9.43;6.03;;;;;;;34.94;25.02;100103.22;5444872;32;35218;-73
2023/09/13 12:05:02;;;;;;;10.57;6.18;;;;;;;34.78;25.15;100107.38;5452642;32;35411;-70
2023/09/13 12:08:27;;;;;;;9.32;6.05;;;;;;;36.29;22.67;100105.72;5451044;32;35077;-76
2023/09/13 12:11:32;;;;;;;12.90;5.97;;;;;;;38.76;19.42;100100.38;5445958;32;34239;-79
2023/09/13 12:14:41;;;;;;;10.07;5.55;;;;;;;39.56;18.76;100094.34;5441604;32;35645;-69
2023/09/13 12:17:46;;;;;;;7.85;5.00;;;;;;;39.33;18.07;100102.84;5436216;32;37265;-91
2023/09/13 12:20:51;;;;;;;15.55;5.28;;;;;;;39.01;18.16;100098.84;5453537;32;35217;-73
2023/09/13 12:23:54;;;;;;;12.10;5.53;;;;;;;37.08;19.52;100100.78;5451226;32;34089;-73
2023/09/13 12:26:56;;;;;;;13.68;5.47;;;;;;;37.43;19.64;100095.25;5449204;32;34555;-75
2023/09/13 12:29:58;;;;;;;12.05;5.53;;;;;;;37.71;19.56;100085.38;5454307;32;34098;-74
2023/09/13 12:33:03;;;;;;;9.15;5.10;;;;;;;36.34;21.22;100089.41;5447735;32;35107;-75
2023/09/13 12:36:06;;;;;;;11.00;6.03;;;;;;;36.17;20.39;100075.59;5457065;32;34032;-73
2023/09/13 12:39:13;;;;;;;9.20;5.40;;;;;;;35.92;20.68;100078.50;5456875;32;34016;-78
2023/09/13 12:42:18;;;;;;;10.88;5.35;;;;;;;35.69;20.67;100068.31;5447473;32;34034;-74
2023/09/13 12:45:20;;;;;;;7.70;4.93;;;;;;;34.59;22.20;100075.63;5456596;32;33927;-74
2023/09/13 12:48:24;;;;;;;11.68;5.20;;;;;;;35.65;20.83;100071.72;5450210;32;35385;-72
2023/09/13 12:51:32;;;;;;;7.53;4.95;;;;;;;35.13;21.42;100074.87;5447893;32;35384;-73
2023/09/13 12:54:35;;;;;;;13.95;5.22;;;;;;;35.32;20.70;100072.13;5433590;32;32415;-82
2023/09/13 12:57:37;;;;;;;8.80;5.22;;;;;;;35.47;20.66;100065.22;5438346;32;34220;-71
2023/09/13 13:01:04;;;;;;;9.82;5.18;;;;;;;35.53;20.87;100067.03;5452213;32;34028;-73
2023/09/13 13:04:08;;;;;;;8.60;4.90;;;;;;;36.93;19.48;100062.09;5447824;32;34042;-78
2023/09/13 13:07:27;;;;;;;8.55;5.75;;;;;;;37.57;19.29;100058.25;5432047;32;34799;-73
2023/09/13 13:10:30;;;;;;;11.80;5.97;;;;;;;36.65;20.13;100051.84;5449438;32;34059;-87
2023/09/13 13:13:36;;;;;;;11.27;5.12;;;;;;;36.39;20.74;100040.34;5455632;32;35176;-86
2023/09/13 13:16:39;;;;;;;9.77;5.65;;;;;;;37.91;18.87;100044.63;5447074;32;35962;-76
2023/09/13 13:19:48;;;;;;;9.02;5.40;;;;;;;36.11;20.66;100049.16;5450065;32;33912;-79
2023/09/13 13:22:58;;;;;;;11.33;5.17;;;;;;;35.66;21.55;100041.41;5450195;32;35195;-77
2023/09/13 13:26:00;;;;;;;9.00;5.22;;;;;;;35.56;20.97;100052.09;5450741;32;36818;-76
2023/09/13 13:29:09;;;;;;;9.43;5.28;;;;;;;34.71;22.10;100044.63;5452366;32;34770;-83
2023/09/13 13:32:11;;;;;;;12.88;5.45;;;;;;;34.48;22.52;100039.00;5450765;32;36235;-86
2023/09/13 13:35:14;;;;;;;8.00;5.20;;;;;;;34.06;22.58;100025.06;5447015;32;31993;-73
2023/09/13 13:38:16;;;;;;;11.80;4.82;;;;;;;33.73;23.11;100027.16;5452636;32;35039;-71
2023/09/13 13:41:25;;;;;;;10.63;5.22;;;;;;;33.61;23.01;100029.75;5452219;32;35217;-68
2023/09/13 13:44:28;;;;;;;9.70;5.75;;;;;;;33.28;23.59;100032.63;5456595;32;34207;-73
2023/09/13 13:47:31;;;;;;;13.38;5.60;;;;;;;33.04;24.40;100031.44;5452253;32;34073;-74
2023/09/13 13:50:34;;;;;;;8.13;5.00;;;;;;;33.67;23.13;100026.97;5448720;32;34018;-74
2023/09/13 13:53:36;;;;;;;10.65;5.95;;;;;;;33.55;23.29;100022.44;5449062;32;35359;-75
2023/09/13 13:56:42;;;;;;;11.45;5.40;;;;;;;33.56;24.16;100021.41;5450688;32;35290;-72
2023/09/13 13:59:44;;;;;;;12.37;5.65;;;;;;;33.50;24.69;100016.84;5451113;32;34043;-72
2023/09/13 14:02:47;;;;;;;12.63;5.78;;;;;;;33.93;24.24;100022.44;5452191;32;34197;-71
2023/09/13 14:05:50;;;;;;;9.70;4.93;;;;;;;33.82;23.81;100013.06;5457257;32;33974;-73
2023/09/13 14:08:52;;;;;;;13.75;5.75;;;;;;;33.25;24.80;100012.09;5454320;32;35637;-76
2023/09/13 14:11:55;;;;;;;9.25;5.85;;;;;;;33.67;24.66;100002.44;5451483;32;34225;-71
2023/09/13 14:15:00;;;;;;;9.45;5.60;;;;;;;33.60;24.61;100003.56;5455112;32;34023;-86
2023/09/13 14:18:03;;;;;;;13.60;6.05;;;;;;;33.77;24.31;99999.25;5448916;32;32415;-73
2023/09/13 14:21:05;;;;;;;10.25;5.55;;;;;;;34.03;24.02;99995.53;5450337;32;34235;-82
2023/09/13 14:24:08;;;;;;;8.55;5.30;;;;;;;33.53;25.00;99991.88;5451413;32;34618;-77
2023/09/13 14:27:10;;;;;;;9.05;5.68;;;;;;;34.40;23.28;99995.63;5447176;32;34176;-85
2023/09/13 14:30:12;;;;;;;9.80;5.87;;;;;;;34.28;23.71;99995.50;5448959;32;34131;-82
2023/09/13 14:33:17;;;;;;;11.07;5.72;;;;;;;34.33;23.76;99990.22;5450838;32;33877;-75